Mc Connell Air Force Base
KIAB : now visible

Airfield :











YOU CAN JOIN US ON...

 
LOGIN :

Register | Disclaimer

   EN    FR    IT 

 









Legend :    VFR   Marginal VFR   IFR   Intensive IFR   Very Intensive IFR
Visi :
Ceiling :
>= 8 km
>= 3000ft
5 to 8 km
1000 to 3000 ft
1500m to 5 km
500 to 1000 ft
800 to 1500m
200 to 500 ft
< 800m
< 200 ft
Symbols :   Thunderstorms  Fog  Heavy snow  Heavy precipitations  Wind > 20 kt






- Airport Elevation : 1371 ft
- IATA code : IAB


KIAB - Mc Connell Air Force Base

CURRENT METAR :
  • 262339Z AUTO 01012KT 10SM OVC014 M03/M06 A3032 RMK AO2 UPB28E39 SLP287

EXPIRED METARs :
  • 262328Z 01015KT 10SM -UP OVC014 M03/M06 A3032 RMK AO2A UPB28 SLP287
  • 262306Z AUTO 01015G23KT 10SM OVC014 M03/M06 A3032 RMK AO2 SLP287
  • 262256Z AUTO 01015G19KT 10SM OVC015 M03/M06 A3033 RMK AO2 UPB19E41 PRESRR SLP290 P0000 T10301061
  • 262241Z AUTO 02014KT 10SM OVC015 M03/M06 A3031 RMK AO2 UPB19E41 SLP283
  • 262239Z AUTO 01015KT 10SM -UP OVC015 M03/M06 A3032 RMK AO2 UPB19 SLP287
  • 262219Z AUTO 01015KT 10SM -UP OVC014 M03/M06 A3032 RMK AO2 UPB19 SLP287
  • 262156Z AUTO 01014KT 10SM OVC013 M03/M06 A3032 RMK AO2 DZE03 SLP287 P0000 T10291060
  • 262103Z AUTO 01016KT 10SM OVC013 M03/M05 A3031 RMK AO2 DZE03 SLP282

TAF TAF KIAB
Valid from the 26 at 18:00 until the 28 at 00:00 UTC


261814Z 2618/2724 02020G25KT 9000 -SN OVC012 620144 650545 QNH3032INS
TEMPO 2618/2624 8000 -PL
BECMG 2705/2706 36012KT 9999 NSW SCT007 BKN014 620144 650545 QNH3034INS
TEMPO 2712/2715 9000 -FZDZ
BECMG 2714/2715 36009KT 8000 -RASN BKN014 650149 QNH3034INS
TEMPO 2715/2718 6000 -FZRAPL
BECMG 2717/2718 02009KT 9000 -DZ SCT021 BKN030 620304 QNH3027INS
BECMG 2720/2721 VRB06KT 9999 NSW BKN030 OVC040 510853 QNH3023INS TX01/2718Z TNM03/2621Z
KZKC FIR / North America



MET'MAP, your aeronautical weather chart ! - Copyright ORBIFLY December 2007 - Disclaimer

ORBIFLY MET'MAP TEAM :

Programming & Development : Alexandra Zaïnal
Concept & original design : Baudouin d'Aumeries
Assistance for programming : Marc-Olivier Méhu
Technical & hardware support : Manuel Goepfert

Contact : metmap@orbifly.com




SOURCES & CREDITS :

   NOAA       Earth
Advisory